To NAV CANADA Home Page Login to a new session Search on AWWS site Feedback and Comments Disclaimer Vers la page française équivalente Tips FAQ What's new on the site To the Forecasts and Observations / NOTAM section To "File a Flight Plan" website Publications and other links Update of the User's profile FIC Telephone Numbers My Weather Data Folder Route Weather Data Regional Weather Data Local Weather Data To the Forecasts and Observations / NOTAM section
Request Generated 04/25/2014 at 06:01:26 UTC . Weather information available at that time is displayed.

METAR/TAF

WINNIPEG/JAMES ARMSTRONG RICHARDSON INTL/MB    

METAR CYWG 250500Z 08006KT 3SM -SN BR BKN005 OVC016 00/M00 A2978 RMK
SF6SC2 SLP096=
METAR CYWG 250400Z 09006KT 3SM -SN BR BKN005 OVC014 00/M00 A2979 RMK
SF6SC2 SLP098=
METAR CYWG 250300Z 08007KT 3SM -SN BR BKN005 OVC014 00/M00 A2978 RMK
SF5SC3 SLP096=

TAF CYWG 250538Z 2506/2606 07008KT 2SM -SN BR OVC005 TEMPO 2506/2516
6SM -SN OVC010 PROB30 2508/2515 OVC003
FM251600 07008KT 5SM -DZ BR BKN008 TEMPO 2516/2519 P6SM NSW
OVC012
FM251900 07008KT P6SM BKN012
FM252300 10010KT P6SM BKN025
RMK NXT FCST BY 251200Z=
Your time UTC time
Weather data provided by Environment Canada and NAV CANADA